John C. Munro Hamilton International Airport
CYHM : rendu visible

Aérodrome :











RETROUVEZ-NOUS SUR...

 
LOGIN :

S'inscrire | Disclaimer

   EN    FR    IT 

 









Légende :    VFR   VFR Marginal   IFR   IFR Intensif   IFR Très Intensif
Visi : 
Plafond : 
>= 8 km
>= 3000ft
5 à 8 km
1000 à 3000 ft
1500m à 5 km
500 à 1000 ft
800 à 1500m
200 à 500 ft
< 800m
< 200 ft
Symboles :   Orages  Brouillard  Fortes neiges  Fortes précipitations  Vent > 20 kt






- Altitude de l'aérodrome : 780 ft
- Code IATA : YHM


CYHM - John C. Munro Hamilton International

DERNIER METAR :
  • 212300Z 23009KT 15SM FEW120 BKN250 M07/M11 A3043 RMK AC1CS4 SLP320

METARs EXPIRÉS :
  • 212200Z 24011G18KT 15SM FEW110 BKN250 M06/M11 A3043 RMK AC1CS6 CONTRAILS SLP321
  • 212100Z 24012KT 15SM FEW024 SCT120 BKN250 M05/M10 A3043 RMK SC1AC2CS4 SUN DMLY VSBL SLP320

TAF TAF CYHM
Valide du 22 à 00h jusqu'au 23 à 00h UTC


212338Z 2200/2224 24010KT P6SM FEW120 BKN200
FM221400 24012KT P6SM BKN012
BECMG 2215/2217 23012G22KT
FM221900 23012G22KT P6SM FEW020 BKN200 RMK NXT FCST BY 220600Z



MET'MAP, la Météo Aéronautique d'un coup d'oeil ! - Copyright ORBIFLY Décembre 2007 - Disclaimer

ORBIFLY MET'MAP TEAM :

Programmation & Développement : Alexandra Zaïnal
Sur une idée originale de : Baudouin d'Aumeries
Assistance à la programmation : Marc-Olivier Méhu
Soutien technique & logistique : Manuel Goepfert

Contact : metmap@orbifly.com




SOURCES & CREDITS :

   NOAA       Earth
Advisory